createdAt,value
2017-04-09T00:00:01.569Z,3.75
2017-04-09T00:01:01.626Z,3.77
2017-04-09T00:02:01.653Z,3.83
2017-04-09T00:03:01.657Z,3.88
2017-04-09T00:04:01.673Z,3.93
2017-04-09T00:05:01.702Z,3.92
2017-04-09T00:05:55.733Z,3.90
2017-04-09T00:06:56.775Z,3.90
2017-04-09T00:07:56.865Z,3.94
2017-04-09T00:08:56.887Z,3.96
2017-04-09T00:09:56.790Z,3.92
2017-04-09T00:10:56.849Z,3.89
2017-04-09T00:11:51.898Z,3.86
2017-04-09T00:12:45.935Z,3.83
2017-04-09T00:13:45.945Z,3.82
2017-04-09T00:14:40.951Z,3.82
2017-04-09T00:15:40.993Z,3.80
2017-04-09T00:16:35.010Z,3.76
2017-04-09T00:17:34.986Z,3.72
2017-04-09T00:18:30.114Z,3.74
2017-04-09T00:19:25.147Z,3.74
2017-04-09T00:20:25.142Z,3.70
2017-04-09T00:21:20.191Z,3.68
2017-04-09T00:22:15.195Z,3.65
2017-04-09T00:23:15.213Z,3.66
2017-04-09T00:24:10.310Z,3.67
2017-04-09T00:25:05.312Z,3.66
2017-04-09T00:26:06.298Z,3.66
2017-04-09T00:27:06.316Z,3.63
2017-04-09T00:28:06.350Z,3.59
2017-04-09T00:29:01.357Z,3.56
2017-04-09T00:29:55.429Z,3.61
2017-04-09T00:30:55.463Z,3.61
2017-04-09T00:31:50.452Z,3.58
2017-04-09T00:32:50.552Z,3.56
2017-04-09T00:33:44.539Z,3.54
2017-04-09T00:34:44.572Z,3.54
2017-04-09T00:35:39.576Z,3.54
2017-04-09T00:36:34.615Z,3.54
2017-04-09T00:37:34.830Z,3.54
2017-04-09T00:38:29.633Z,3.54
2017-04-09T00:39:24.700Z,3.58
2017-04-09T00:40:30.713Z,3.57
2017-04-09T00:41:24.718Z,3.56
2017-04-09T00:42:24.768Z,3.54
2017-04-09T00:43:19.919Z,3.54
2017-04-09T00:44:19.781Z,3.53
2017-04-09T00:45:13.841Z,3.52
2017-04-09T00:46:13.925Z,3.49
2017-04-09T00:47:08.932Z,3.49
2017-04-09T00:48:03.940Z,3.48
2017-04-09T00:49:03.947Z,3.47
2017-04-09T00:49:59.033Z,3.52
2017-04-09T00:50:54.044Z,3.52
2017-04-09T00:51:54.031Z,3.52
2017-04-09T00:52:49.113Z,3.50
2017-04-09T00:53:44.127Z,3.50
2017-04-09T00:54:45.115Z,3.49
2017-04-09T00:55:46.166Z,3.48
2017-04-09T00:56:41.204Z,3.42
2017-04-09T00:57:35.488Z,3.42
2017-04-09T00:58:35.415Z,3.40
2017-04-09T00:59:35.268Z,3.38
2017-04-09T01:00:30.290Z,3.33
2017-04-09T01:01:24.320Z,3.27
2017-04-09T01:02:24.364Z,3.24
2017-04-09T01:03:19.542Z,3.22
2017-04-09T01:04:14.434Z,3.25
2017-04-09T01:05:15.452Z,3.30
2017-04-09T01:06:15.446Z,3.32
2017-04-09T01:07:15.442Z,3.36
2017-04-09T01:08:15.537Z,3.36
2017-04-09T01:09:16.564Z,3.30
2017-04-09T01:10:17.540Z,3.30
2017-04-09T01:11:11.610Z,3.26
2017-04-09T01:12:11.610Z,3.24
2017-04-09T01:13:06.620Z,3.25
2017-04-09T01:14:01.641Z,3.28
2017-04-09T01:15:03.063Z,3.29
2017-04-09T01:16:08.739Z,3.30
2017-04-09T01:17:02.747Z,3.30
2017-04-09T01:18:02.772Z,3.26
2017-04-09T01:19:02.827Z,3.22
2017-04-09T01:19:57.830Z,3.20
2017-04-09T01:20:52.007Z,3.23
2017-04-09T01:21:52.905Z,3.26
2017-04-09T01:22:52.957Z,3.30
2017-04-09T01:23:47.938Z,3.34
2017-04-09T01:24:53.932Z,3.28
2017-04-09T01:25:48.933Z,3.25
2017-04-09T01:26:43.029Z,3.24
2017-04-09T01:27:43.073Z,3.18
2017-04-09T01:28:43.066Z,3.18
2017-04-09T01:29:43.150Z,3.14
2017-04-09T01:30:44.131Z,3.12
2017-04-09T01:31:45.201Z,3.12
2017-04-09T01:32:39.220Z,3.14
2017-04-09T01:33:39.225Z,3.14
2017-04-09T01:34:34.251Z,3.14
2017-04-09T01:35:29.259Z,3.11
2017-04-09T01:36:29.295Z,3.06
2017-04-09T01:37:24.392Z,3.02
2017-04-09T01:38:19.337Z,3.02
2017-04-09T01:39:19.468Z,3.00
2017-04-09T01:40:14.361Z,2.98
2017-04-09T01:41:09.439Z,2.98
2017-04-09T01:42:10.454Z,2.94
2017-04-09T01:43:10.534Z,2.96
2017-04-09T01:44:10.498Z,2.95
2017-04-09T01:45:05.522Z,3.01
2017-04-09T01:45:59.537Z,3.04
2017-04-09T01:46:59.595Z,3.03
2017-04-09T01:47:54.643Z,2.96
2017-04-09T01:48:54.642Z,2.94
2017-04-09T01:49:48.682Z,2.98
2017-04-09T01:50:48.703Z,2.95
2017-04-09T01:51:43.717Z,2.92
2017-04-09T01:52:38.768Z,2.91
2017-04-09T01:53:38.775Z,2.94
2017-04-09T01:54:33.902Z,2.92
2017-04-09T01:55:28.817Z,2.88
2017-04-09T01:56:29.849Z,2.88
2017-04-09T01:57:30.005Z,2.86
2017-04-09T01:58:29.919Z,2.90
2017-04-09T01:59:24.929Z,2.92
2017-04-09T02:00:18.960Z,2.92
2017-04-09T02:01:19.027Z,2.86
2017-04-09T02:02:14.013Z,2.84
2017-04-09T02:03:14.054Z,2.86
2017-04-09T02:04:08.055Z,2.86
2017-04-09T02:05:08.062Z,2.85
2017-04-09T02:06:03.161Z,2.84
2017-04-09T02:07:03.153Z,2.81
2017-04-09T02:08:03.159Z,2.78
2017-04-09T02:09:03.231Z,2.85
2017-04-09T02:09:57.266Z,2.87
2017-04-09T02:10:58.265Z,2.86
2017-04-09T02:11:59.309Z,2.84
2017-04-09T02:12:54.309Z,2.84
2017-04-09T02:13:48.329Z,2.84
2017-04-09T02:14:49.337Z,2.86
2017-04-09T02:15:50.453Z,2.84
2017-04-09T02:16:45.428Z,2.84
2017-04-09T02:17:39.399Z,2.81
2017-04-09T02:18:39.437Z,2.80
2017-04-09T02:19:39.459Z,2.78
2017-04-09T02:20:39.534Z,2.78
2017-04-09T02:21:45.531Z,2.72
2017-04-09T02:22:40.564Z,2.67
2017-04-09T02:23:40.606Z,2.60
2017-04-09T02:24:34.632Z,2.60
2017-04-09T02:25:34.649Z,2.62
2017-04-09T02:26:29.652Z,2.64
2017-04-09T02:27:29.717Z,2.66
2017-04-09T02:28:29.816Z,2.70
2017-04-09T02:29:29.743Z,2.72
2017-04-09T02:30:23.805Z,2.68
2017-04-09T02:31:23.833Z,2.64
2017-04-09T02:32:18.853Z,2.62
2017-04-09T02:33:13.833Z,2.64
2017-04-09T02:34:13.950Z,2.65
2017-04-09T02:35:08.940Z,2.65
2017-04-09T02:36:03.927Z,2.60
2017-04-09T02:37:03.957Z,2.54
2017-04-09T02:37:58.968Z,2.46
2017-04-09T02:38:54.030Z,2.40
2017-04-09T02:39:55.054Z,2.33
2017-04-09T02:40:55.050Z,2.26
2017-04-09T02:41:55.133Z,2.20
2017-04-09T02:42:50.121Z,2.15
2017-04-09T02:43:44.152Z,2.15
2017-04-09T02:44:44.215Z,2.20
2017-04-09T02:45:38.240Z,2.24
2017-04-09T02:46:26.228Z,2.33
2017-04-09T02:47:15.295Z,2.38
2017-04-09T02:48:09.287Z,2.41
2017-04-09T02:49:03.344Z,2.43
2017-04-09T02:49:52.349Z,2.42
2017-04-09T02:50:46.416Z,2.41
2017-04-09T02:51:40.448Z,2.40
2017-04-09T02:52:34.445Z,2.38
2017-04-09T02:53:22.529Z,2.32
2017-04-09T02:54:10.517Z,2.32
2017-04-09T02:54:58.572Z,2.30
2017-04-09T02:55:52.663Z,2.30
2017-04-09T02:56:46.636Z,2.29
2017-04-09T02:57:35.632Z,2.24
2017-04-09T02:58:29.726Z,2.20
2017-04-09T02:59:23.772Z,2.16
2017-04-09T03:00:12.763Z,2.16
2017-04-09T03:01:00.886Z,2.22
2017-04-09T03:01:54.845Z,2.28
2017-04-09T03:02:54.856Z,2.32
2017-04-09T03:03:43.865Z,2.36
2017-04-09T03:04:32.908Z,2.40
2017-04-09T03:05:20.966Z,2.38
2017-04-09T03:06:15.017Z,2.34
2017-04-09T03:07:09.069Z,2.28
2017-04-09T03:08:03.037Z,2.25
2017-04-09T03:09:04.070Z,2.25
2017-04-09T03:09:58.138Z,2.30
2017-04-09T03:10:58.148Z,2.29
2017-04-09T03:11:47.222Z,2.26
2017-04-09T03:12:36.223Z,2.24
2017-04-09T03:13:25.231Z,2.24
2017-04-09T03:14:25.266Z,2.24
2017-04-09T03:15:20.273Z,2.20
2017-04-09T03:16:20.319Z,2.20
2017-04-09T03:17:15.309Z,2.16
2017-04-09T03:18:10.353Z,2.10
2017-04-09T03:19:10.362Z,2.06
2017-04-09T03:20:05.430Z,2.00
2017-04-09T03:21:00.435Z,1.99
2017-04-09T03:22:01.462Z,2.02
2017-04-09T03:23:01.477Z,2.05
2017-04-09T03:24:01.545Z,2.03
2017-04-09T03:24:56.555Z,2.02
2017-04-09T03:25:50.570Z,1.96
2017-04-09T03:26:50.619Z,1.91
2017-04-09T03:27:45.653Z,1.92
2017-04-09T03:28:45.703Z,1.95
2017-04-09T03:29:39.698Z,1.94
2017-04-09T03:30:39.721Z,1.90
2017-04-09T03:31:34.741Z,1.92
2017-04-09T03:32:29.731Z,1.95
2017-04-09T03:33:29.728Z,1.96
2017-04-09T03:34:25.031Z,1.99
2017-04-09T03:35:20.069Z,1.96
2017-04-09T03:36:20.864Z,1.92
2017-04-09T03:37:20.852Z,1.87
2017-04-09T03:38:20.921Z,1.86
2017-04-09T03:39:15.921Z,1.83
2017-04-09T03:40:09.957Z,1.80
2017-04-09T03:41:10.996Z,1.75
2017-04-09T03:42:11.006Z,1.72
2017-04-09T03:43:11.034Z,1.72
2017-04-09T03:44:11.029Z,1.72
2017-04-09T03:45:17.122Z,1.72
2017-04-09T03:46:12.121Z,1.69
2017-04-09T03:47:12.126Z,1.64
2017-04-09T03:48:06.130Z,1.62
2017-04-09T03:49:06.231Z,1.56
2017-04-09T03:50:01.200Z,1.56
2017-04-09T03:50:56.262Z,1.65
2017-04-09T03:51:56.240Z,1.71
2017-04-09T03:52:51.276Z,1.76
2017-04-09T03:53:46.319Z,1.74
2017-04-09T03:54:46.345Z,1.74
2017-04-09T03:55:41.422Z,1.74
2017-04-09T03:56:36.435Z,1.71
2017-04-09T03:57:37.442Z,1.69
2017-04-09T03:58:37.459Z,1.66
2017-04-09T03:59:37.447Z,1.65
2017-04-09T04:00:32.521Z,1.70
2017-04-09T04:01:26.516Z,1.67
2017-04-09T04:02:26.600Z,1.63
2017-04-09T04:03:21.612Z,1.64
2017-04-09T04:04:21.634Z,1.72
2017-04-09T04:05:15.638Z,1.80
2017-04-09T04:06:16.659Z,1.90
2017-04-09T04:07:17.719Z,1.92
2017-04-09T04:08:12.761Z,1.94
2017-04-09T04:09:12.743Z,1.86
2017-04-09T04:10:12.755Z,1.82
2017-04-09T04:11:06.839Z,1.77
2017-04-09T04:12:06.811Z,1.74
2017-04-09T04:13:06.839Z,1.69
2017-04-09T04:14:01.863Z,1.71
2017-04-09T04:14:55.870Z,1.69
2017-04-09T04:15:56.972Z,1.70
2017-04-09T04:16:57.043Z,1.69
2017-04-09T04:17:51.970Z,1.71
2017-04-09T04:18:52.031Z,1.76
2017-04-09T04:19:46.051Z,1.78
2017-04-09T04:20:46.106Z,1.78
2017-04-09T04:21:41.057Z,1.82
2017-04-09T04:22:36.124Z,1.84
2017-04-09T04:23:36.174Z,1.80
2017-04-09T04:24:31.159Z,1.76
2017-04-09T04:25:26.236Z,1.72
2017-04-09T04:26:27.258Z,1.68
2017-04-09T04:27:27.229Z,1.64
2017-04-09T04:28:27.258Z,1.65
2017-04-09T04:29:27.297Z,1.70
2017-04-09T04:30:27.329Z,1.70
2017-04-09T04:31:27.359Z,1.70
2017-04-09T04:32:27.345Z,1.66
2017-04-09T04:33:27.358Z,1.62
2017-04-09T04:34:27.368Z,1.62
2017-04-09T04:35:27.512Z,1.58
2017-04-09T04:36:27.450Z,1.62
2017-04-09T04:37:28.479Z,1.66
2017-04-09T04:38:23.528Z,1.76
2017-04-09T04:39:17.560Z,1.77
2017-04-09T04:40:23.558Z,1.82
2017-04-09T04:41:17.624Z,1.78
2017-04-09T04:42:18.688Z,1.78
2017-04-09T04:43:13.660Z,1.78
2017-04-09T04:44:13.630Z,1.81
2017-04-09T04:45:13.719Z,1.86
2017-04-09T04:46:13.701Z,1.87
2017-04-09T04:47:13.824Z,1.86
2017-04-09T04:48:13.738Z,1.92
2017-04-09T04:49:13.774Z,1.94
2017-04-09T04:50:13.833Z,1.96
2017-04-09T04:51:13.843Z,1.95
2017-04-09T04:52:14.134Z,1.90
2017-04-09T04:53:19.867Z,1.86
2017-04-09T04:54:14.949Z,1.89
2017-04-09T04:55:08.937Z,1.88
2017-04-09T04:56:09.948Z,1.90
2017-04-09T04:57:11.005Z,1.86
2017-04-09T04:58:06.024Z,1.91
2017-04-09T04:59:06.035Z,1.97
2017-04-09T05:00:06.073Z,2.00
2017-04-09T05:01:06.120Z,2.04
2017-04-09T05:02:06.145Z,2.06
2017-04-09T05:03:06.124Z,2.13
2017-04-09T05:04:06.146Z,2.08
2017-04-09T05:05:06.245Z,2.06
2017-04-09T05:06:06.221Z,2.12
2017-04-09T05:07:06.251Z,1.98
2017-04-09T05:08:06.273Z,1.97
2017-04-09T05:09:06.308Z,1.95
2017-04-09T05:10:06.349Z,2.06
2017-04-09T05:11:06.349Z,2.06
2017-04-09T05:12:06.327Z,2.14
2017-04-09T05:13:06.400Z,2.13
2017-04-09T05:14:06.421Z,2.12
2017-04-09T05:15:06.430Z,2.16
2017-04-09T05:16:06.469Z,2.14
2017-04-09T05:17:06.501Z,2.10
2017-04-09T05:18:06.522Z,2.13
2017-04-09T05:19:06.558Z,2.14
2017-04-09T05:20:06.539Z,2.21
2017-04-09T05:21:06.615Z,2.20
2017-04-09T05:22:06.625Z,2.33
2017-04-09T05:23:06.665Z,2.30
2017-04-09T05:24:12.632Z,2.39
2017-04-09T05:25:07.685Z,2.42
2017-04-09T05:26:01.752Z,2.44
2017-04-09T05:27:01.765Z,2.49
2017-04-09T05:27:56.794Z,2.52
2017-04-09T05:28:51.813Z,2.58
2017-04-09T05:29:51.829Z,2.66
2017-04-09T05:30:46.868Z,2.66
2017-04-09T05:31:41.875Z,2.67
2017-04-09T05:32:35.930Z,2.68
2017-04-09T05:33:36.946Z,2.66
2017-04-09T05:34:31.953Z,2.64
2017-04-09T05:35:32.000Z,2.70
2017-04-09T05:36:31.988Z,2.74
2017-04-09T05:37:32.043Z,2.72
2017-04-09T05:38:32.118Z,2.79
2017-04-09T05:39:32.213Z,2.85
2017-04-09T05:40:32.280Z,3.00
2017-04-09T05:41:32.159Z,3.24
2017-04-09T05:42:32.206Z,3.30
2017-04-09T05:43:32.244Z,3.44
2017-04-09T05:44:32.266Z,3.58
2017-04-09T05:45:32.248Z,3.89
2017-04-09T05:46:32.289Z,4.22
2017-04-09T05:47:32.373Z,4.56
2017-04-09T05:48:32.403Z,4.88
2017-04-09T05:49:32.356Z,5.29
2017-04-09T05:50:32.353Z,5.48
2017-04-09T05:51:32.452Z,5.73
2017-04-09T05:52:38.436Z,5.89
2017-04-09T05:53:33.461Z,6.08
2017-04-09T05:54:27.542Z,6.22
2017-04-09T05:55:28.614Z,6.32
2017-04-09T05:56:29.567Z,6.46
2017-04-09T05:57:24.548Z,6.54
2017-04-09T05:58:24.638Z,6.68
2017-04-09T05:59:24.657Z,6.71
2017-04-09T06:00:24.768Z,6.87
2017-04-09T06:01:24.750Z,6.86
2017-04-09T06:02:24.790Z,6.94
2017-04-09T06:03:30.744Z,6.97
2017-04-09T06:04:25.797Z,7.10
2017-04-09T06:05:19.821Z,7.12
2017-04-09T06:06:19.866Z,7.21
2017-04-09T06:07:14.932Z,7.32
2017-04-09T06:08:10.062Z,7.40
2017-04-09T06:09:09.918Z,7.50
2017-04-09T06:10:05.000Z,7.51
2017-04-09T06:11:00.007Z,7.50
2017-04-09T06:11:54.045Z,7.61
2017-04-09T06:12:55.102Z,7.77
2017-04-09T06:13:50.153Z,7.83
2017-04-09T06:14:50.139Z,7.80
2017-04-09T06:15:50.216Z,7.96
2017-04-09T06:16:50.229Z,8.20
2017-04-09T06:17:50.270Z,8.36
2017-04-09T06:18:50.346Z,8.45
2017-04-09T06:19:50.329Z,8.54
2017-04-09T06:20:50.312Z,8.50
2017-04-09T06:21:50.366Z,8.66
2017-04-09T06:22:50.689Z,8.81
2017-04-09T06:23:50.461Z,9.02
2017-04-09T06:24:45.508Z,9.12
2017-04-09T06:25:40.621Z,9.41
2017-04-09T06:26:40.561Z,9.45
2017-04-09T06:27:35.626Z,9.56
2017-04-09T06:28:30.652Z,9.79
2017-04-09T06:29:24.632Z,10.23
2017-04-09T06:30:19.742Z,10.50
2017-04-09T06:31:13.737Z,10.31
2017-04-09T06:32:07.797Z,10.37
2017-04-09T06:33:07.811Z,10.52
2017-04-09T06:34:01.843Z,10.38
2017-04-09T06:34:49.912Z,10.06
2017-04-09T06:35:38.951Z,10.30
2017-04-09T06:36:27.053Z,10.40
2017-04-09T06:37:15.047Z,10.46
2017-04-09T06:38:04.131Z,10.67
2017-04-09T06:38:52.147Z,10.70
2017-04-09T06:39:40.215Z,10.74
2017-04-09T06:40:29.236Z,10.84
2017-04-09T06:41:17.255Z,11.02
2017-04-09T06:42:05.374Z,11.27
2017-04-09T06:42:54.386Z,11.00
2017-04-09T06:43:54.361Z,10.45
2017-04-09T06:44:48.465Z,9.88
2017-04-09T06:45:43.461Z,9.18
2017-04-09T06:46:43.531Z,8.97
2017-04-09T06:47:37.569Z,9.06
2017-04-09T06:48:38.608Z,8.87
2017-04-09T06:49:38.640Z,8.90
2017-04-09T06:50:33.707Z,9.13
2017-04-09T06:51:27.731Z,9.10
2017-04-09T06:52:22.717Z,9.12
2017-04-09T06:53:17.858Z,9.38
2017-04-09T06:54:11.834Z,9.68
2017-04-09T06:55:06.868Z,9.64
2017-04-09T06:56:06.855Z,9.73
2017-04-09T06:57:00.992Z,9.74
2017-04-09T06:58:01.017Z,9.82
2017-04-09T06:58:55.040Z,9.81
2017-04-09T06:59:56.059Z,9.99
2017-04-09T07:00:56.098Z,9.82
2017-04-09T07:01:51.152Z,10.00
2017-04-09T07:02:51.264Z,10.16
2017-04-09T07:03:51.245Z,10.20
2017-04-09T07:04:45.254Z,9.83
2017-04-09T07:05:40.292Z,9.86
2017-04-09T07:06:35.333Z,10.33
2017-04-09T07:07:29.374Z,10.30
2017-04-09T07:08:24.436Z,10.35
2017-04-09T07:09:25.476Z,10.42
2017-04-09T07:10:20.522Z,10.70
2017-04-09T07:11:15.524Z,10.93
2017-04-09T07:12:10.599Z,11.41
2017-04-09T07:13:10.632Z,11.88
2017-04-09T07:14:05.674Z,12.31
2017-04-09T07:15:00.749Z,12.52
2017-04-09T07:16:00.733Z,12.34
2017-04-09T07:17:00.773Z,12.22
2017-04-09T07:17:54.797Z,12.07
2017-04-09T07:18:49.885Z,11.72
2017-04-09T07:19:49.861Z,11.51
2017-04-09T07:20:44.951Z,11.51
2017-04-09T07:21:45.038Z,11.30
2017-04-09T07:22:40.077Z,11.52
2017-04-09T07:23:35.042Z,11.61
2017-04-09T07:24:29.130Z,11.80
2017-04-09T07:25:29.166Z,11.75
2017-04-09T07:26:24.222Z,11.52
2017-04-09T07:27:19.495Z,11.52
2017-04-09T07:28:19.272Z,11.78
2017-04-09T07:29:13.288Z,12.10
2017-04-09T07:30:07.373Z,12.25
2017-04-09T07:31:08.441Z,12.19
2017-04-09T07:32:08.447Z,12.38
2017-04-09T07:33:08.539Z,12.36
2017-04-09T07:34:08.577Z,12.27
2017-04-09T07:35:03.561Z,12.26
2017-04-09T07:35:58.634Z,12.06
2017-04-09T07:36:59.656Z,12.23
2017-04-09T07:37:54.730Z,12.38
2017-04-09T07:38:49.769Z,12.50
2017-04-09T07:39:43.776Z,12.48
2017-04-09T07:40:43.807Z,12.86
2017-04-09T07:41:37.876Z,12.36
2017-04-09T07:42:32.940Z,12.25
2017-04-09T07:43:33.946Z,12.07
2017-04-09T07:44:34.044Z,12.16
2017-04-09T07:45:34.059Z,12.40
2017-04-09T07:46:34.115Z,12.44
2017-04-09T07:47:34.152Z,12.74
2017-04-09T07:48:34.186Z,12.88
2017-04-09T07:49:29.223Z,12.90
2017-04-09T07:50:24.341Z,13.30
2017-04-09T07:51:24.330Z,13.56
2017-04-09T07:52:19.574Z,13.81
2017-04-09T07:53:14.399Z,14.36
2017-04-09T07:54:20.450Z,14.81
2017-04-09T07:55:15.490Z,15.11
2017-04-09T07:56:04.560Z,15.36
2017-04-09T07:57:10.599Z,15.50
2017-04-09T07:58:05.672Z,15.60
2017-04-09T07:58:59.651Z,15.60
2017-04-09T08:00:05.736Z,15.76
2017-04-09T08:01:00.745Z,15.92
2017-04-09T08:01:54.823Z,16.10
2017-04-09T08:02:49.131Z,15.72
2017-04-09T08:03:43.901Z,15.35
2017-04-09T08:04:38.920Z,14.39
2017-04-09T08:05:39.987Z,14.19
2017-04-09T08:06:40.065Z,14.38
2017-04-09T08:07:34.216Z,13.96
2017-04-09T08:08:34.165Z,13.86
2017-04-09T08:09:22.168Z,14.13
2017-04-09T08:10:22.252Z,14.38
2017-04-09T08:11:16.277Z,14.89
2017-04-09T08:12:10.346Z,15.60
2017-04-09T08:13:04.346Z,15.84
2017-04-09T08:14:04.384Z,15.42
2017-04-09T08:14:59.477Z,15.60
2017-04-09T08:15:53.550Z,15.56
2017-04-09T08:16:48.558Z,14.96
2017-04-09T08:17:49.882Z,14.56
2017-04-09T08:18:49.675Z,14.00
2017-04-09T08:19:44.717Z,13.77
2017-04-09T08:20:44.827Z,14.07
2017-04-09T08:21:39.766Z,14.18
2017-04-09T08:22:28.872Z,13.91
2017-04-09T08:23:28.886Z,14.12
2017-04-09T08:24:24.062Z,14.20
2017-04-09T08:25:23.982Z,14.34
2017-04-09T08:26:19.043Z,14.56
2017-04-09T08:27:19.109Z,14.85
2017-04-09T08:28:14.176Z,14.95
2017-04-09T08:29:09.185Z,15.55
2017-04-09T08:30:09.226Z,16.04
2017-04-09T08:31:04.266Z,16.21
2017-04-09T08:31:59.341Z,16.44
2017-04-09T08:32:53.374Z,16.66
2017-04-09T08:33:48.430Z,16.71
2017-04-09T08:34:49.471Z,16.36
2017-04-09T08:35:44.548Z,16.25
2017-04-09T08:36:39.567Z,16.44
2017-04-09T08:37:33.657Z,16.67
2017-04-09T08:38:28.653Z,16.45
2017-04-09T08:39:22.780Z,16.66
2017-04-09T08:40:17.770Z,16.82
2017-04-09T08:41:17.845Z,16.47
2017-04-09T08:42:12.873Z,16.17
2017-04-09T08:43:07.969Z,15.60
2017-04-09T08:44:01.959Z,15.40
2017-04-09T08:44:56.023Z,15.40
2017-04-09T08:45:50.075Z,15.69
2017-04-09T08:46:45.139Z,15.94
2017-04-09T08:47:46.176Z,16.03
2017-04-09T08:48:41.251Z,16.15
2017-04-09T08:49:41.341Z,15.47
2017-04-09T08:50:41.342Z,15.49
2017-04-09T08:51:41.367Z,15.68
2017-04-09T08:52:41.474Z,15.84
2017-04-09T08:53:41.512Z,16.14
2017-04-09T08:54:41.562Z,16.15
2017-04-09T08:55:41.563Z,16.06
2017-04-09T08:56:41.664Z,16.35
2017-04-09T08:57:35.687Z,16.18
2017-04-09T08:58:35.742Z,16.25
2017-04-09T08:59:30.784Z,16.17
2017-04-09T09:00:25.812Z,16.06
2017-04-09T09:01:19.836Z,16.35
2017-04-09T09:02:13.986Z,16.82
2017-04-09T09:03:07.975Z,17.48
2017-04-09T09:04:03.032Z,17.81
2017-04-09T09:04:51.102Z,18.44
2017-04-09T09:05:40.157Z,18.85
2017-04-09T09:06:35.264Z,18.64
2017-04-09T09:07:35.261Z,17.89
2017-04-09T09:08:30.336Z,18.08
2017-04-09T09:09:25.320Z,18.55
2017-04-09T09:10:19.437Z,19.15
2017-04-09T09:11:19.448Z,18.98
2017-04-09T09:12:13.557Z,18.92
2017-04-09T09:13:14.550Z,18.24
2017-04-09T09:14:14.623Z,17.98
2017-04-09T09:15:08.644Z,17.58
2017-04-09T09:16:08.738Z,17.37
2017-04-09T09:17:02.745Z,17.81
2017-04-09T09:18:03.843Z,18.34
2017-04-09T09:18:58.877Z,18.63
2017-04-09T09:19:58.950Z,18.80
2017-04-09T09:20:47.932Z,19.01
2017-04-09T09:21:37.065Z,19.36
2017-04-09T09:22:31.072Z,19.16
2017-04-09T09:23:26.426Z,18.96
2017-04-09T09:24:26.230Z,18.57
2017-04-09T09:25:26.231Z,18.68
2017-04-09T09:26:26.319Z,19.08
2017-04-09T09:27:14.341Z,19.43
2017-04-09T09:28:08.424Z,19.74
2017-04-09T09:29:02.462Z,20.04
2017-04-09T09:30:02.558Z,20.06
2017-04-09T09:30:51.605Z,20.31
2017-04-09T09:31:46.681Z,20.42
2017-04-09T09:32:40.727Z,19.96
2017-04-09T09:33:34.769Z,20.04
2017-04-09T09:34:29.825Z,19.98
2017-04-09T09:35:29.864Z,19.56
2017-04-09T09:36:18.925Z,19.65
2017-04-09T09:37:12.982Z,20.04
2017-04-09T09:38:01.045Z,20.45
2017-04-09T09:39:01.122Z,20.62
2017-04-09T09:39:55.138Z,20.55
2017-04-09T09:40:50.201Z,19.66
2017-04-09T09:41:45.220Z,19.13
2017-04-09T09:42:45.270Z,18.76
2017-04-09T09:43:45.352Z,18.57
2017-04-09T09:44:45.410Z,18.63
2017-04-09T09:45:45.446Z,18.69
2017-04-09T09:46:45.499Z,19.08
2017-04-09T09:47:45.588Z,19.46
2017-04-09T09:48:39.628Z,19.92
2017-04-09T09:49:34.685Z,20.48
2017-04-09T09:50:29.774Z,20.97
2017-04-09T09:51:24.785Z,21.11
2017-04-09T09:52:26.153Z,21.21
2017-04-09T09:53:20.925Z,20.26
2017-04-09T09:54:14.976Z,19.04
2017-04-09T09:55:15.037Z,18.62
2017-04-09T09:56:03.082Z,19.25
2017-04-09T09:56:57.148Z,19.93
2017-04-09T09:57:57.218Z,20.20
2017-04-09T09:58:51.267Z,20.09
2017-04-09T09:59:52.318Z,20.48
2017-04-09T10:00:46.339Z,21.16
2017-04-09T10:01:40.413Z,21.90
2017-04-09T10:02:29.416Z,22.39
2017-04-09T10:03:24.552Z,22.96
2017-04-09T10:04:18.567Z,23.30
2017-04-09T10:05:24.646Z,23.80
2017-04-09T10:06:13.703Z,23.56
2017-04-09T10:07:01.758Z,23.90
2017-04-09T10:07:57.075Z,23.67
2017-04-09T10:08:50.797Z,23.27
2017-04-09T10:09:44.967Z,23.28
2017-04-09T10:10:33.966Z,23.26
2017-04-09T10:11:28.302Z,23.24
2017-04-09T10:12:17.064Z,23.52
2017-04-09T10:13:11.157Z,23.33
2017-04-09T10:14:11.245Z,22.49
2017-04-09T10:15:06.267Z,21.30
2017-04-09T10:16:00.293Z,21.30
2017-04-09T10:16:55.344Z,21.39
2017-04-09T10:17:50.466Z,21.82
2017-04-09T10:18:39.505Z,22.02
2017-04-09T10:19:33.579Z,22.34
2017-04-09T10:20:28.647Z,22.70
2017-04-09T10:21:22.645Z,22.85
2017-04-09T10:22:11.726Z,22.62
2017-04-09T10:23:05.771Z,22.70
2017-04-09T10:23:54.824Z,22.78
2017-04-09T10:24:48.908Z,22.95
2017-04-09T10:25:49.028Z,23.30
2017-04-09T10:26:43.982Z,23.49
2017-04-09T10:27:33.064Z,23.78
2017-04-09T10:28:22.126Z,24.00
2017-04-09T10:29:10.163Z,24.00
2017-04-09T10:30:10.219Z,23.71
2017-04-09T10:30:58.283Z,23.43
2017-04-09T10:31:53.344Z,22.34
2017-04-09T10:32:54.380Z,21.30
2017-04-09T10:33:54.430Z,21.15
2017-04-09T10:34:48.518Z,21.44
2017-04-09T10:35:43.550Z,22.14
2017-04-09T10:36:37.625Z,22.37
2017-04-09T10:37:37.665Z,22.34
2017-04-09T10:38:25.715Z,22.56
2017-04-09T10:39:13.801Z,22.54
2017-04-09T10:40:02.863Z,22.49
2017-04-09T10:40:56.995Z,22.70
2017-04-09T10:41:56.998Z,23.22
2017-04-09T10:42:51.023Z,23.61
2017-04-09T10:43:45.043Z,24.11
2017-04-09T10:44:39.141Z,24.35
2017-04-09T10:45:28.197Z,24.68
2017-04-09T10:46:23.241Z,24.60
2017-04-09T10:47:18.304Z,24.59
2017-04-09T10:48:07.360Z,24.72
2017-04-09T10:49:08.421Z,24.56
2017-04-09T10:49:57.453Z,24.59
2017-04-09T10:50:46.527Z,24.43
2017-04-09T10:51:40.652Z,24.41
2017-04-09T10:52:29.612Z,24.09
2017-04-09T10:53:18.729Z,24.00
2017-04-09T10:54:06.763Z,24.12
2017-04-09T10:55:00.813Z,24.28
2017-04-09T10:55:54.918Z,24.27
2017-04-09T10:56:54.939Z,23.55
2017-04-09T10:57:44.018Z,23.02
2017-04-09T10:58:33.056Z,22.81
2017-04-09T10:59:22.106Z,22.63
2017-04-09T11:00:17.145Z,22.87
2017-04-09T11:01:05.230Z,23.04
2017-04-09T11:01:59.321Z,22.81
2017-04-09T11:02:48.405Z,22.96
2017-04-09T11:03:42.427Z,23.36
2017-04-09T11:04:36.455Z,23.80
2017-04-09T11:05:36.522Z,24.10
2017-04-09T11:06:30.569Z,24.39
2017-04-09T11:07:36.659Z,24.84
2017-04-09T11:08:30.720Z,24.97
2017-04-09T11:09:30.784Z,25.21
2017-04-09T11:10:19.860Z,25.22
2017-04-09T11:11:07.921Z,25.21
2017-04-09T11:12:02.021Z,25.15
2017-04-09T11:13:02.054Z,24.98
2017-04-09T11:13:56.133Z,24.46
2017-04-09T11:14:56.146Z,24.19
2017-04-09T11:15:51.262Z,24.46
2017-04-09T11:16:46.322Z,24.51
2017-04-09T11:17:35.334Z,24.87
2017-04-09T11:18:23.430Z,25.12
2017-04-09T11:19:11.489Z,25.46
2017-04-09T11:20:06.540Z,25.92
2017-04-09T11:21:01.661Z,25.73
2017-04-09T11:21:55.755Z,25.88
2017-04-09T11:22:55.795Z,25.68
2017-04-09T11:23:55.878Z,24.44
2017-04-09T11:24:49.950Z,23.82
2017-04-09T11:25:50.964Z,22.79
2017-04-09T11:26:46.047Z,23.14
2017-04-09T11:27:40.162Z,23.30
2017-04-09T11:28:29.181Z,23.48
2017-04-09T11:29:18.271Z,23.75
2017-04-09T11:30:12.252Z,23.73
2017-04-09T11:31:12.347Z,23.48
2017-04-09T11:32:06.404Z,23.28
2017-04-09T11:33:06.475Z,23.01
2017-04-09T11:34:00.514Z,23.02
2017-04-09T11:34:54.588Z,23.51
2017-04-09T11:35:42.640Z,23.24
2017-04-09T11:36:37.690Z,23.11
2017-04-09T11:37:37.764Z,23.29
2017-04-09T11:38:31.818Z,23.25
2017-04-09T11:39:27.145Z,21.97
2017-04-09T11:40:26.954Z,21.43
2017-04-09T11:41:20.951Z,21.23
2017-04-09T11:42:21.057Z,21.91
2017-04-09T11:43:16.133Z,22.57
2017-04-09T11:44:10.143Z,23.18
2017-04-09T11:44:59.234Z,23.75
2017-04-09T11:45:54.286Z,24.36
2017-04-09T11:46:48.338Z,25.04
2017-04-09T11:47:43.433Z,25.69
2017-04-09T11:48:37.490Z,26.21
2017-04-09T11:49:32.563Z,26.52
2017-04-09T11:50:20.658Z,26.66
2017-04-09T11:51:09.735Z,26.70
2017-04-09T11:52:10.814Z,26.30
2017-04-09T11:53:11.155Z,25.71
2017-04-09T11:54:10.947Z,25.32
2017-04-09T11:55:06.052Z,25.11
2017-04-09T11:56:00.054Z,24.94
2017-04-09T11:56:55.144Z,24.80
2017-04-09T11:57:43.231Z,24.96
2017-04-09T11:58:37.276Z,24.56
2017-04-09T11:59:37.333Z,23.58
2017-04-09T12:00:31.378Z,23.58
2017-04-09T12:01:26.442Z,24.04
2017-04-09T12:02:20.517Z,24.45
2017-04-09T12:03:15.559Z,24.64
2017-04-09T12:04:15.619Z,24.76
2017-04-09T12:05:10.658Z,24.77
2017-04-09T12:06:05.755Z,24.17
2017-04-09T12:06:59.843Z,24.28
2017-04-09T12:07:47.886Z,24.38
2017-04-09T12:08:35.939Z,24.77
2017-04-09T12:09:25.014Z,25.22
2017-04-09T12:10:14.053Z,25.55
2017-04-09T12:11:08.129Z,25.90
2017-04-09T12:11:57.237Z,25.71
2017-04-09T12:12:57.243Z,25.78
2017-04-09T12:13:52.346Z,25.03
2017-04-09T12:14:52.441Z,24.49
2017-04-09T12:15:47.463Z,24.16
2017-04-09T12:16:41.527Z,23.21
2017-04-09T12:17:41.578Z,23.60
2017-04-09T12:18:30.658Z,23.96
2017-04-09T12:19:25.758Z,23.78
2017-04-09T12:20:19.720Z,23.50